THY854 LTFM-LDDU
Flight info
| Callsign | THY854 |
|---|---|
| Flight time | 1h 25m |
| Altitude | 38000 |
| Route | VADEN1D/35L VADEN N618 BAKLO DCT LETNI DCT ENFAR DCT RETRA DCT MOKUN |
| Aircraft | A319/M-SDE3FGHIRWY/LB1 |
Departure
| Time | 2026-05-04 17:14 |
|---|---|
| Airport | İstanbul Airport (LTFM) |
Arrival
| Time | 2026-05-04 18:40 |
|---|---|
| Airport | Dubrovnik Ruđer Bošković Airport (LDDU) |
| Time | Latitude | Longitude | Altitude | Speed | Heading |
|---|---|---|---|---|---|
| 2026-05-04 16:29 | 41.26325 | 28.74034 | 333 ft | 0 kts | 177° |
| 2026-05-04 17:03 | 41.26326 | 28.74034 | 333 ft | 0 kts | 177° |
| 2026-05-04 17:05 | 41.26342 | 28.74033 | 333 ft | 3 kts | 177° |
| 2026-05-04 17:06 | 41.26395 | 28.74029 | 333 ft | 3 kts | 176° |
| 2026-05-04 17:06 | 41.26416 | 28.74013 | 333 ft | 3 kts | 122° |
| 2026-05-04 17:07 | 41.26420 | 28.73989 | 333 ft | 0 kts | 85° |
| 2026-05-04 17:08 | 41.26426 | 28.74010 | 333 ft | 6 kts | 54° |
| 2026-05-04 17:09 | 41.26495 | 28.74021 | 333 ft | 12 kts | 357° |
| 2026-05-04 17:09 | 41.26590 | 28.74018 | 333 ft | 14 kts | 1° |
| 2026-05-04 17:09 | 41.26698 | 28.74017 | 333 ft | 17 kts | 359° |
| 2026-05-04 17:10 | 41.26862 | 28.73908 | 333 ft | 15 kts | 268° |
| 2026-05-04 17:10 | 41.26860 | 28.73389 | 333 ft | 19 kts | 268° |
| 2026-05-04 17:11 | 41.26858 | 28.73210 | 333 ft | 18 kts | 271° |
| 2026-05-04 17:11 | 41.26852 | 28.73036 | 333 ft | 18 kts | 256° |
| 2026-05-04 17:11 | 41.26609 | 28.72995 | 333 ft | 19 kts | 180° |
| 2026-05-04 17:12 | 41.26474 | 28.72998 | 333 ft | 19 kts | 179° |
| 2026-05-04 17:12 | 41.26220 | 28.72971 | 333 ft | 16 kts | 236° |
| 2026-05-04 17:13 | 41.26214 | 28.72541 | 333 ft | 12 kts | 307° |
| 2026-05-04 17:14 | 41.26384 | 28.72520 | 334 ft | 54 kts | 358° |
| 2026-05-04 17:14 | 41.27013 | 28.72500 | 334 ft | 123 kts | 358° |
| 2026-05-04 17:14 | 41.28996 | 28.72505 | 1516 ft | 141 kts | 1° |
| 2026-05-04 17:15 | 41.29937 | 28.72554 | 2350 ft | 135 kts | 3° |
| 2026-05-04 17:15 | 41.31839 | 28.72582 | 3391 ft | 152 kts | 0° |
| 2026-05-04 17:16 | 41.34187 | 28.72582 | 4198 ft | 190 kts | 0° |
| 2026-05-04 17:16 | 41.38508 | 28.71507 | 5983 ft | 244 kts | 322° |
| 2026-05-04 17:17 | 41.39527 | 28.69666 | 6967 ft | 252 kts | 309° |
| 2026-05-04 17:17 | 41.42310 | 28.63560 | 9479 ft | 267 kts | 310° |
| 2026-05-04 17:18 | 41.43271 | 28.61442 | 10306 ft | 272 kts | 310° |
| 2026-05-04 17:18 | 41.45332 | 28.56925 | 11243 ft | 304 kts | 309° |
| 2026-05-04 17:19 | 41.47591 | 28.51910 | 12447 ft | 323 kts | 308° |
| 2026-05-04 17:19 | 41.49919 | 28.46712 | 13788 ft | 334 kts | 308° |
| 2026-05-04 17:20 | 41.52318 | 28.41346 | 15120 ft | 343 kts | 308° |
| 2026-05-04 17:20 | 41.54778 | 28.35837 | 16477 ft | 349 kts | 308° |
| 2026-05-04 17:20 | 41.56020 | 28.33050 | 17099 ft | 353 kts | 307° |
| 2026-05-04 17:21 | 41.58464 | 28.27308 | 18290 ft | 364 kts | 304° |
| 2026-05-04 17:21 | 41.60763 | 28.21243 | 19483 ft | 371 kts | 303° |
| 2026-05-04 17:22 | 41.61932 | 28.18136 | 20074 ft | 374 kts | 303° |
| 2026-05-04 17:22 | 41.63099 | 28.15038 | 20656 ft | 377 kts | 303° |
| 2026-05-04 17:23 | 41.66656 | 28.05589 | 22291 ft | 385 kts | 303° |
| 2026-05-04 17:23 | 41.67940 | 28.02478 | 22813 ft | 385 kts | 307° |
| 2026-05-04 17:23 | 41.70813 | 27.96443 | 23818 ft | 389 kts | 309° |
| 2026-05-04 17:24 | 41.72293 | 27.93395 | 24319 ft | 392 kts | 309° |
| 2026-05-04 17:24 | 41.76764 | 27.84145 | 25773 ft | 399 kts | 308° |
| 2026-05-04 17:25 | 41.78279 | 27.81003 | 26219 ft | 402 kts | 308° |
| 2026-05-04 17:25 | 41.81310 | 27.74703 | 27107 ft | 408 kts | 308° |
| 2026-05-04 17:26 | 41.84387 | 27.68290 | 27959 ft | 413 kts | 308° |
| 2026-05-04 17:26 | 41.89076 | 27.58490 | 29168 ft | 420 kts | 308° |
| 2026-05-04 17:27 | 41.92247 | 27.51846 | 29894 ft | 426 kts | 308° |
| 2026-05-04 17:27 | 41.95441 | 27.45136 | 30643 ft | 430 kts | 307° |
| 2026-05-04 17:28 | 41.98669 | 27.38335 | 31336 ft | 435 kts | 307° |
| 2026-05-04 17:29 | 42.03497 | 27.28109 | 32688 ft | 433 kts | 307° |
| 2026-05-04 17:29 | 42.08731 | 27.18369 | 33905 ft | 427 kts | 315° |
| 2026-05-04 17:30 | 42.14654 | 27.09482 | 35015 ft | 425 kts | 316° |
| 2026-05-04 17:31 | 42.18600 | 27.03580 | 35610 ft | 423 kts | 315° |
| 2026-05-04 17:31 | 42.24449 | 26.94763 | 36397 ft | 422 kts | 315° |
| 2026-05-04 17:32 | 42.28356 | 26.88854 | 36840 ft | 423 kts | 315° |
| 2026-05-04 17:33 | 42.34228 | 26.79942 | 37445 ft | 426 kts | 314° |
| 2026-05-04 17:33 | 42.36178 | 26.76975 | 37634 ft | 427 kts | 315° |
| 2026-05-04 17:34 | 42.42083 | 26.67970 | 38057 ft | 430 kts | 314° |
| 2026-05-04 17:34 | 42.44067 | 26.64938 | 38065 ft | 430 kts | 314° |
| 2026-05-04 17:35 | 42.52303 | 26.48181 | 38063 ft | 438 kts | 289° |
| 2026-05-04 17:36 | 42.53202 | 26.40032 | 38071 ft | 444 kts | 273° |
| 2026-05-04 17:36 | 42.52628 | 26.31724 | 38071 ft | 447 kts | 264° |
| 2026-05-04 17:37 | 42.51768 | 26.23418 | 38067 ft | 446 kts | 264° |
| 2026-05-04 17:37 | 42.50914 | 26.15080 | 38073 ft | 446 kts | 264° |
| 2026-05-04 17:38 | 42.50069 | 26.06746 | 38079 ft | 452 kts | 264° |
| 2026-05-04 17:38 | 42.49209 | 25.98270 | 38078 ft | 461 kts | 264° |
| 2026-05-04 17:39 | 42.47884 | 25.85311 | 38080 ft | 467 kts | 264° |
| 2026-05-04 17:39 | 42.46990 | 25.76656 | 38082 ft | 467 kts | 264° |
| 2026-05-04 17:40 | 42.46082 | 25.67932 | 38086 ft | 467 kts | 264° |
| 2026-05-04 17:40 | 42.45176 | 25.59287 | 38088 ft | 466 kts | 264° |
| 2026-05-04 17:41 | 42.44264 | 25.50643 | 38088 ft | 466 kts | 264° |
| 2026-05-04 17:41 | 42.43347 | 25.42016 | 38089 ft | 466 kts | 264° |
| 2026-05-04 17:42 | 42.42417 | 25.33322 | 38093 ft | 466 kts | 263° |
| 2026-05-04 17:42 | 42.41488 | 25.24694 | 38096 ft | 466 kts | 263° |
| 2026-05-04 17:43 | 42.40550 | 25.16065 | 38098 ft | 466 kts | 264° |
| 2026-05-04 17:43 | 42.39604 | 25.07401 | 38098 ft | 465 kts | 264° |
| 2026-05-04 17:44 | 42.38655 | 24.98796 | 38092 ft | 464 kts | 264° |
| 2026-05-04 17:44 | 42.37702 | 24.90198 | 38091 ft | 465 kts | 263° |
| 2026-05-04 17:45 | 42.36740 | 24.81592 | 38090 ft | 465 kts | 264° |
| 2026-05-04 17:45 | 42.35764 | 24.72934 | 38080 ft | 465 kts | 264° |
| 2026-05-04 17:46 | 42.34788 | 24.64336 | 38086 ft | 465 kts | 264° |
| 2026-05-04 17:46 | 42.33808 | 24.55745 | 38086 ft | 464 kts | 264° |
| 2026-05-04 17:47 | 42.32826 | 24.47201 | 38096 ft | 464 kts | 264° |
| 2026-05-04 17:47 | 42.31829 | 24.38576 | 38096 ft | 465 kts | 264° |
| 2026-05-04 17:48 | 42.30833 | 24.30017 | 38098 ft | 465 kts | 263° |
| 2026-05-04 17:48 | 42.29829 | 24.21430 | 38095 ft | 465 kts | 263° |
| 2026-05-04 17:49 | 42.28809 | 24.12789 | 38116 ft | 465 kts | 263° |
| 2026-05-04 17:49 | 42.27796 | 24.04264 | 38122 ft | 464 kts | 263° |
| 2026-05-04 17:50 | 42.26773 | 23.95711 | 38132 ft | 463 kts | 263° |
| 2026-05-04 17:50 | 42.25739 | 23.87134 | 38130 ft | 464 kts | 263° |
| 2026-05-04 17:51 | 42.24704 | 23.78576 | 38123 ft | 464 kts | 263° |
| 2026-05-04 17:51 | 42.23662 | 23.70036 | 38127 ft | 464 kts | 263° |
| 2026-05-04 17:52 | 42.22610 | 23.61453 | 38132 ft | 464 kts | 263° |
| 2026-05-04 17:52 | 42.21552 | 23.52893 | 38132 ft | 463 kts | 263° |
| 2026-05-04 17:53 | 42.20492 | 23.44386 | 38139 ft | 462 kts | 263° |
| 2026-05-04 17:53 | 42.19424 | 23.35845 | 38148 ft | 462 kts | 263° |
| 2026-05-04 17:54 | 42.18354 | 23.27322 | 38139 ft | 463 kts | 263° |
| 2026-05-04 17:54 | 42.17279 | 23.18822 | 38142 ft | 464 kts | 263° |
| 2026-05-04 17:55 | 42.16186 | 23.10255 | 38144 ft | 464 kts | 263° |
| 2026-05-04 17:55 | 42.15098 | 23.01785 | 38134 ft | 463 kts | 263° |
| 2026-05-04 17:56 | 42.13994 | 22.93252 | 38119 ft | 463 kts | 263° |
| 2026-05-04 17:56 | 42.12887 | 22.84719 | 38118 ft | 462 kts | 263° |
| 2026-05-04 17:57 | 42.11776 | 22.76238 | 38125 ft | 462 kts | 263° |
| 2026-05-04 17:57 | 42.10658 | 22.67752 | 38132 ft | 461 kts | 263° |
| 2026-05-04 17:58 | 42.09536 | 22.59312 | 38135 ft | 462 kts | 262° |
| 2026-05-04 17:58 | 42.08281 | 22.50804 | 38146 ft | 464 kts | 262° |
| 2026-05-04 17:59 | 42.07006 | 22.42383 | 38149 ft | 464 kts | 262° |
| 2026-05-04 18:00 | 42.05080 | 22.29658 | 38145 ft | 462 kts | 262° |
| 2026-05-04 18:00 | 42.03803 | 22.21239 | 38139 ft | 462 kts | 262° |
| 2026-05-04 18:01 | 42.02510 | 22.12770 | 38135 ft | 462 kts | 262° |
| 2026-05-04 18:01 | 42.01215 | 22.04348 | 38139 ft | 463 kts | 262° |
| 2026-05-04 18:02 | 41.99259 | 21.91689 | 38146 ft | 462 kts | 262° |
| 2026-05-04 18:02 | 41.97951 | 21.83282 | 38141 ft | 462 kts | 262° |
| 2026-05-04 18:03 | 41.96631 | 21.74843 | 38139 ft | 461 kts | 262° |
| 2026-05-04 18:03 | 41.95310 | 21.66437 | 38145 ft | 461 kts | 262° |
| 2026-05-04 18:04 | 41.93989 | 21.58080 | 38145 ft | 460 kts | 262° |
| 2026-05-04 18:05 | 41.91996 | 21.45536 | 38155 ft | 460 kts | 262° |
| 2026-05-04 18:05 | 41.90655 | 21.37161 | 38157 ft | 460 kts | 262° |
| 2026-05-04 18:06 | 41.88611 | 21.24602 | 38170 ft | 459 kts | 261° |
| 2026-05-04 18:06 | 41.87238 | 21.16233 | 38167 ft | 459 kts | 262° |
| 2026-05-04 18:07 | 41.85880 | 21.07927 | 38166 ft | 458 kts | 262° |
| 2026-05-04 18:07 | 41.84521 | 20.99614 | 38180 ft | 459 kts | 262° |
| 2026-05-04 18:08 | 41.83153 | 20.91285 | 38182 ft | 459 kts | 262° |
| 2026-05-04 18:08 | 41.81785 | 20.82995 | 38184 ft | 458 kts | 262° |
| 2026-05-04 18:09 | 41.79035 | 20.66396 | 38178 ft | 456 kts | 263° |
| 2026-05-04 18:10 | 41.78466 | 20.58082 | 38185 ft | 448 kts | 275° |
| 2026-05-04 18:10 | 41.79233 | 20.49927 | 38184 ft | 441 kts | 287° |
| 2026-05-04 18:11 | 41.81256 | 20.42239 | 38186 ft | 436 kts | 299° |
| 2026-05-04 18:11 | 41.84008 | 20.35055 | 38186 ft | 435 kts | 301° |
| 2026-05-04 18:12 | 41.86809 | 20.27870 | 38183 ft | 436 kts | 300° |
| 2026-05-04 18:12 | 41.89601 | 20.20672 | 38183 ft | 436 kts | 300° |
| 2026-05-04 18:13 | 41.92381 | 20.13482 | 38133 ft | 435 kts | 300° |
| 2026-05-04 18:13 | 41.95151 | 20.06300 | 37497 ft | 435 kts | 300° |
| 2026-05-04 18:14 | 41.96527 | 20.02725 | 37190 ft | 436 kts | 300° |
| 2026-05-04 18:14 | 41.97934 | 19.99066 | 36877 ft | 436 kts | 300° |
| 2026-05-04 18:14 | 41.99306 | 19.95492 | 36579 ft | 437 kts | 300° |
| 2026-05-04 18:15 | 42.02093 | 19.88223 | 36078 ft | 438 kts | 300° |
| 2026-05-04 18:15 | 42.04873 | 19.80957 | 35622 ft | 439 kts | 300° |
| 2026-05-04 18:15 | 42.06263 | 19.77312 | 35398 ft | 439 kts | 300° |
| 2026-05-04 18:16 | 42.07661 | 19.73644 | 35208 ft | 439 kts | 300° |
| 2026-05-04 18:16 | 42.09050 | 19.70000 | 35036 ft | 439 kts | 301° |
| 2026-05-04 18:16 | 42.10439 | 19.66350 | 34879 ft | 439 kts | 301° |
| 2026-05-04 18:17 | 42.13225 | 19.59076 | 34609 ft | 439 kts | 301° |
| 2026-05-04 18:17 | 42.14607 | 19.55453 | 34484 ft | 438 kts | 301° |
| 2026-05-04 18:17 | 42.17368 | 19.48152 | 33941 ft | 432 kts | 300° |
| 2026-05-04 18:18 | 42.18704 | 19.44604 | 33093 ft | 434 kts | 301° |
| 2026-05-04 18:18 | 42.20072 | 19.40972 | 32041 ft | 439 kts | 301° |
| 2026-05-04 18:18 | 42.21451 | 19.37305 | 31229 ft | 442 kts | 300° |
| 2026-05-04 18:18 | 42.22763 | 19.33503 | 30685 ft | 448 kts | 296° |
| 2026-05-04 18:19 | 42.24961 | 19.25655 | 29615 ft | 454 kts | 293° |
| 2026-05-04 18:19 | 42.26012 | 19.21656 | 29065 ft | 456 kts | 292° |
| 2026-05-04 18:19 | 42.27074 | 19.17600 | 28519 ft | 458 kts | 292° |
| 2026-05-04 18:20 | 42.28123 | 19.13588 | 27973 ft | 460 kts | 292° |
| 2026-05-04 18:20 | 42.29186 | 19.09522 | 27419 ft | 462 kts | 292° |
| 2026-05-04 18:20 | 42.30249 | 19.05454 | 26865 ft | 464 kts | 292° |
| 2026-05-04 18:20 | 42.31333 | 19.01298 | 26302 ft | 466 kts | 292° |
| 2026-05-04 18:21 | 42.32403 | 18.97188 | 25736 ft | 468 kts | 292° |
| 2026-05-04 18:21 | 42.33481 | 18.93038 | 25159 ft | 471 kts | 292° |
| 2026-05-04 18:21 | 42.34567 | 18.88853 | 24566 ft | 473 kts | 292° |
| 2026-05-04 18:21 | 42.35645 | 18.84694 | 23979 ft | 475 kts | 292° |
| 2026-05-04 18:22 | 42.36724 | 18.80514 | 23395 ft | 472 kts | 292° |
| 2026-05-04 18:22 | 42.37798 | 18.76345 | 22835 ft | 469 kts | 292° |
| 2026-05-04 18:22 | 42.38863 | 18.72210 | 22281 ft | 466 kts | 292° |
| 2026-05-04 18:22 | 42.39910 | 18.68131 | 21732 ft | 462 kts | 292° |
| 2026-05-04 18:23 | 42.40959 | 18.64040 | 21179 ft | 460 kts | 292° |
| 2026-05-04 18:23 | 42.42003 | 18.59963 | 20624 ft | 457 kts | 291° |
| 2026-05-04 18:23 | 42.43041 | 18.55904 | 20069 ft | 455 kts | 291° |
| 2026-05-04 18:23 | 42.44060 | 18.51918 | 19526 ft | 452 kts | 292° |
| 2026-05-04 18:24 | 42.45291 | 18.48054 | 18969 ft | 447 kts | 300° |
| 2026-05-04 18:24 | 42.46903 | 18.44471 | 18424 ft | 442 kts | 307° |
| 2026-05-04 18:24 | 42.48659 | 18.41079 | 17876 ft | 440 kts | 308° |
| 2026-05-04 18:24 | 42.50415 | 18.37769 | 17344 ft | 437 kts | 308° |
| 2026-05-04 18:25 | 42.52188 | 18.34423 | 16812 ft | 434 kts | 307° |
| 2026-05-04 18:25 | 42.53931 | 18.31100 | 16284 ft | 432 kts | 307° |
| 2026-05-04 18:25 | 42.55561 | 18.27714 | 15736 ft | 432 kts | 298° |
| 2026-05-04 18:25 | 42.56373 | 18.23793 | 15205 ft | 436 kts | 276° |
| 2026-05-04 18:26 | 42.56051 | 18.19738 | 14724 ft | 440 kts | 254° |
| 2026-05-04 18:26 | 42.54704 | 18.16065 | 14253 ft | 440 kts | 238° |
| 2026-05-04 18:26 | 42.53055 | 18.12583 | 13771 ft | 437 kts | 240° |
| 2026-05-04 18:26 | 42.51593 | 18.08977 | 13666 ft | 436 kts | 247° |
| 2026-05-04 18:27 | 42.50863 | 18.05048 | 13460 ft | 432 kts | 267° |
| 2026-05-04 18:27 | 42.51205 | 18.01076 | 12993 ft | 422 kts | 289° |
| 2026-05-04 18:27 | 42.52601 | 17.97641 | 12553 ft | 415 kts | 311° |
| 2026-05-04 18:27 | 42.54613 | 17.94880 | 12116 ft | 412 kts | 316° |
| 2026-05-04 18:28 | 42.56437 | 17.91923 | 11661 ft | 412 kts | 307° |
| 2026-05-04 18:28 | 42.57983 | 17.88641 | 11166 ft | 411 kts | 301° |
| 2026-05-04 18:28 | 42.59359 | 17.85275 | 10697 ft | 408 kts | 299° |
| 2026-05-04 18:28 | 42.60677 | 17.81891 | 10245 ft | 406 kts | 298° |
| 2026-05-04 18:29 | 42.61980 | 17.78519 | 9791 ft | 404 kts | 298° |
| 2026-05-04 18:29 | 42.63278 | 17.75171 | 9351 ft | 402 kts | 299° |
| 2026-05-04 18:29 | 42.64578 | 17.71828 | 8910 ft | 400 kts | 299° |
| 2026-05-04 18:29 | 42.65935 | 17.68562 | 8452 ft | 396 kts | 306° |
| 2026-05-04 18:30 | 42.70379 | 17.64870 | 7528 ft | 375 kts | 354° |
| 2026-05-04 18:30 | 42.72915 | 17.65243 | 7175 ft | 363 kts | 20° |
| 2026-05-04 18:30 | 42.74976 | 17.67024 | 6941 ft | 350 kts | 46° |
| 2026-05-04 18:31 | 42.76274 | 17.69717 | 6622 ft | 337 kts | 66° |
| 2026-05-04 18:31 | 42.76836 | 17.72692 | 6296 ft | 312 kts | 86° |
| 2026-05-04 18:31 | 42.76622 | 17.75521 | 5988 ft | 291 kts | 107° |
| 2026-05-04 18:31 | 42.75761 | 17.77889 | 5702 ft | 273 kts | 122° |
| 2026-05-04 18:32 | 42.74751 | 17.80046 | 5417 ft | 268 kts | 121° |
| 2026-05-04 18:32 | 42.73795 | 17.82196 | 5126 ft | 267 kts | 120° |
| 2026-05-04 18:32 | 42.72890 | 17.84365 | 4994 ft | 260 kts | 118° |
| 2026-05-04 18:32 | 42.72044 | 17.86466 | 4986 ft | 247 kts | 118° |
| 2026-05-04 18:33 | 42.71256 | 17.88473 | 4917 ft | 237 kts | 116° |
| 2026-05-04 18:33 | 42.70531 | 17.90456 | 4852 ft | 229 kts | 116° |
| 2026-05-04 18:33 | 42.69834 | 17.92357 | 4809 ft | 219 kts | 116° |
| 2026-05-04 18:33 | 42.69159 | 17.94142 | 4768 ft | 209 kts | 117° |
| 2026-05-04 18:34 | 42.68491 | 17.95857 | 4740 ft | 198 kts | 117° |
| 2026-05-04 18:34 | 42.67843 | 17.97494 | 4798 ft | 196 kts | 117° |
| 2026-05-04 18:34 | 42.67196 | 17.99114 | 4639 ft | 196 kts | 118° |
| 2026-05-04 18:34 | 42.66550 | 18.00720 | 4410 ft | 191 kts | 117° |
| 2026-05-04 18:35 | 42.65926 | 18.02273 | 4155 ft | 187 kts | 117° |
| 2026-05-04 18:35 | 42.65307 | 18.03815 | 3901 ft | 183 kts | 118° |
| 2026-05-04 18:35 | 42.64709 | 18.05306 | 3658 ft | 178 kts | 118° |
| 2026-05-04 18:35 | 42.64120 | 18.06774 | 3420 ft | 174 kts | 118° |
| 2026-05-04 18:36 | 42.63552 | 18.08195 | 3188 ft | 170 kts | 118° |
| 2026-05-04 18:36 | 42.63003 | 18.09569 | 2975 ft | 162 kts | 118° |
| 2026-05-04 18:36 | 42.62484 | 18.10869 | 2739 ft | 150 kts | 118° |
| 2026-05-04 18:36 | 42.61993 | 18.12101 | 2543 ft | 148 kts | 118° |
| 2026-05-04 18:37 | 42.61506 | 18.13321 | 2355 ft | 148 kts | 118° |
| 2026-05-04 18:37 | 42.61019 | 18.14545 | 2163 ft | 148 kts | 118° |
| 2026-05-04 18:37 | 42.60534 | 18.15761 | 1972 ft | 147 kts | 118° |
| 2026-05-04 18:37 | 42.60048 | 18.16983 | 1781 ft | 147 kts | 118° |
| 2026-05-04 18:38 | 42.59563 | 18.18203 | 1591 ft | 147 kts | 119° |
| 2026-05-04 18:38 | 42.59074 | 18.19429 | 1397 ft | 147 kts | 117° |
| 2026-05-04 18:38 | 42.58589 | 18.20649 | 1204 ft | 147 kts | 118° |
| 2026-05-04 18:38 | 42.58110 | 18.21855 | 1016 ft | 147 kts | 119° |
| 2026-05-04 18:39 | 42.57626 | 18.23070 | 828 ft | 147 kts | 117° |
| 2026-05-04 18:39 | 42.57147 | 18.24290 | 659 ft | 146 kts | 119° |
| 2026-05-04 18:39 | 42.56657 | 18.25494 | 517 ft | 143 kts | 117° |
| 2026-05-04 18:39 | 42.56274 | 18.26487 | 519 ft | 94 kts | 118° |
| 2026-05-04 18:40 | 42.56034 | 18.27092 | 509 ft | 63 kts | 116° |
| 2026-05-04 18:40 | 42.55825 | 18.27602 | 494 ft | 61 kts | 117° |
| 2026-05-04 18:40 | 42.55654 | 18.28033 | 484 ft | 40 kts | 120° |
| 2026-05-04 18:40 | 42.55548 | 18.28151 | 485 ft | 10 kts | 173° |
| 2026-05-04 18:41 | 42.55485 | 18.28110 | 489 ft | 9 kts | 240° |
| 2026-05-04 18:41 | 42.55478 | 18.28016 | 491 ft | 12 kts | 292° |
| 2026-05-04 18:41 | 42.55518 | 18.27912 | 492 ft | 12 kts | 297° |
| 2026-05-04 18:41 | 42.55560 | 18.27803 | 493 ft | 12 kts | 297° |
| 2026-05-04 18:42 | 42.55608 | 18.27683 | 495 ft | 14 kts | 298° |
| 2026-05-04 18:42 | 42.55656 | 18.27561 | 496 ft | 14 kts | 298° |
| 2026-05-04 18:42 | 42.55703 | 18.27442 | 500 ft | 12 kts | 297° |
| 2026-05-04 18:42 | 42.55740 | 18.27347 | 503 ft | 10 kts | 298° |
| 2026-05-04 18:43 | 42.55792 | 18.27218 | 506 ft | 21 kts | 298° |
| 2026-05-04 18:43 | 42.55855 | 18.27060 | 509 ft | 17 kts | 299° |
| 2026-05-04 18:43 | 42.55910 | 18.26922 | 512 ft | 16 kts | 298° |
| 2026-05-04 18:43 | 42.55982 | 18.26739 | 513 ft | 23 kts | 298° |
| 2026-05-04 18:44 | 42.56056 | 18.26550 | 514 ft | 21 kts | 298° |
| 2026-05-04 18:44 | 42.56103 | 18.26434 | 517 ft | 20 kts | 298° |
| 2026-05-04 18:44 | 42.56173 | 18.26253 | 520 ft | 6 kts | 269° |
| 2026-05-04 18:44 | 42.56134 | 18.26210 | 518 ft | 7 kts | 213° |
| 2026-05-04 18:45 | 42.56125 | 18.26202 | 518 ft | 0 kts | 210° |